Time;durP1;ratioP1;P1;durP2;ratioP2;P2;SDS_P1;SDS_P2;PMS_P1;PMS_P2;Temp;Humidity;BMP_temperature;BMP_pressure;BME280_temperature;BME280_humidity;BME280_pressure;Samples;Min_cycle;Max_cycle;Signal;HPM_P1;HPM_P2
2023/11/18 00:00:21;;;;;;;0.10;0.10;;;;;;;2.98;100.00;96609.91;1038018;28;20029;-73
2023/11/18 00:00:52;;;;;;;0.40;0.40;;;;;;;2.99;100.00;96606.34;1030241;28;20066;-71
2023/11/18 00:01:23;;;;;;;0.05;0.05;;;;;;;3.00;100.00;96612.34;1022019;29;20408;-72
2023/11/18 00:01:53;;;;;;;0.20;0.20;;;;;;;3.02;100.00;96616.34;1020737;28;20515;-73
2023/11/18 00:02:25;;;;;;;0.10;0.10;;;;;;;3.03;100.00;96611.97;1022937;28;20279;-73
2023/11/18 00:02:55;;;;;;;0.10;0.10;;;;;;;3.04;100.00;96613.53;1030666;28;20026;-73
2023/11/18 00:03:25;;;;;;;0.50;0.50;;;;;;;3.03;100.00;96612.75;1030508;28;20328;-73
2023/11/18 00:03:56;;;;;;;0.00;0.00;;;;;;;3.05;100.00;96609.94;1026606;28;20030;-73
2023/11/18 00:04:26;;;;;;;0.50;0.50;;;;;;;3.05;100.00;96608.19;1022440;29;20647;-73
2023/11/18 00:04:57;;;;;;;0.30;0.30;;;;;;;3.02;100.00;96611.16;1018548;29;20043;-71
2023/11/18 00:05:27;;;;;;;0.00;0.00;;;;;;;3.04;100.00;96609.16;1022218;28;20027;-73
2023/11/18 00:05:58;;;;;;;0.30;0.20;;;;;;;3.07;100.00;96613.16;1030554;28;20026;-74
2023/11/18 00:06:28;;;;;;;0.03;0.03;;;;;;;3.04;100.00;96613.53;1026574;28;20498;-74
2023/11/18 00:07:00;;;;;;;0.03;0.03;;;;;;;3.06;100.00;96620.16;1030407;28;20516;-74
2023/11/18 00:07:32;;;;;;;0.00;0.00;;;;;;;3.07;100.00;96607.97;1034487;28;20038;-72
2023/11/18 00:08:02;;;;;;;0.52;0.52;;;;;;;3.03;100.00;96611.97;1034932;28;20315;-74
2023/11/18 00:08:33;;;;;;;0.25;0.20;;;;;;;3.00;100.00;96600.16;1033805;28;20347;-73
2023/11/18 00:09:04;;;;;;;0.00;0.00;;;;;;;3.07;100.00;96613.16;1030372;28;20041;-73
2023/11/18 00:09:34;;;;;;;0.00;0.00;;;;;;;3.01;100.00;96604.34;1030660;28;20030;-73
2023/11/18 00:10:06;;;;;;;0.10;0.10;;;;;;;3.06;100.00;96614.16;1026520;28;20778;-72
2023/11/18 00:10:36;;;;;;;0.30;0.30;;;;;;;3.02;100.00;96605.19;1026276;28;20473;-73
2023/11/18 00:11:07;;;;;;;0.20;0.20;;;;;;;3.06;100.00;96617.56;1024170;28;20274;-72
2023/11/18 00:11:38;;;;;;;0.75;0.45;;;;;;;3.08;100.00;96609.56;1026851;28;20676;-73
2023/11/18 00:12:09;;;;;;;0.03;0.03;;;;;;;3.07;100.00;96618.34;1030301;28;20026;-73
2023/11/18 00:12:41;;;;;;;0.52;0.52;;;;;;;3.06;100.00;96612.38;1029736;28;20285;-73
2023/11/18 00:13:11;;;;;;;0.43;0.43;;;;;;;3.07;100.00;96616.56;1030780;28;20277;-73
2023/11/18 00:13:42;;;;;;;0.52;0.52;;;;;;;3.10;100.00;96611.97;1034764;28;20308;-72
2023/11/18 00:14:13;;;;;;;0.00;0.00;;;;;;;3.10;100.00;96617.97;1030420;28;20417;-72
2023/11/18 00:14:45;;;;;;;0.05;0.05;;;;;;;3.04;100.00;96605.78;1030619;28;20042;-73
2023/11/18 00:15:15;;;;;;;0.47;0.47;;;;;;;3.12;100.00;96617.75;1026382;28;20041;-73
2023/11/18 00:15:47;;;;;;;0.22;0.22;;;;;;;3.12;100.00;96613.41;1022778;28;20289;-73
2023/11/18 00:16:18;;;;;;;0.30;0.30;;;;;;;3.11;100.00;96608.38;1027162;28;20043;-73
2023/11/18 00:16:49;;;;;;;0.20;0.20;;;;;;;3.11;100.00;96611.78;1030977;28;20280;-73
2023/11/18 00:17:20;;;;;;;0.13;0.13;;;;;;;3.11;100.00;96618.75;1030437;28;20276;-73
2023/11/18 00:17:51;;;;;;;0.68;0.32;;;;;;;3.10;100.00;96614.56;1026403;28;20034;-73
2023/11/18 00:18:21;;;;;;;0.30;0.30;;;;;;;3.07;100.00;96613.97;1034626;28;20273;-74
2023/11/18 00:18:53;;;;;;;0.32;0.32;;;;;;;3.14;100.00;96613.19;1030468;28;20070;-75
2023/11/18 00:19:23;;;;;;;0.00;0.00;;;;;;;3.12;100.00;96615.16;1030555;28;20045;-73
2023/11/18 00:19:54;;;;;;;0.03;0.03;;;;;;;3.13;100.00;96611.59;1029934;28;20276;-73
2023/11/18 00:20:24;;;;;;;1.33;0.95;;;;;;;3.14;100.00;96615.78;1022919;28;20068;-74
2023/11/18 00:20:57;;;;;;;0.38;0.38;;;;;;;3.14;100.00;96613.97;1026511;28;20035;-73
2023/11/18 00:21:30;;;;;;;0.10;0.10;;;;;;;3.08;100.00;96609.56;1022277;28;20035;-73
2023/11/18 00:22:01;;;;;;;0.08;0.08;;;;;;;3.15;100.00;96612.19;1023157;28;20322;-73
2023/11/18 00:22:31;;;;;;;0.38;0.38;;;;;;;3.13;100.00;96617.59;1031159;28;21038;-73
2023/11/18 00:23:04;;;;;;;0.30;0.30;;;;;;;3.14;100.00;96619.16;1030353;28;20027;-73
2023/11/18 00:23:35;;;;;;;0.55;0.55;;;;;;;3.12;100.00;96613.41;1031251;28;20058;-72
2023/11/18 00:24:07;;;;;;;0.43;0.43;;;;;;;3.13;100.00;96619.38;1022237;28;20274;-73
2023/11/18 00:24:38;;;;;;;0.68;0.52;;;;;;;3.11;100.00;96616.16;1023050;28;20031;-73
2023/11/18 00:25:08;;;;;;;0.10;0.10;;;;;;;3.12;100.00;96609.97;1022786;28;20291;-73
2023/11/18 00:25:40;;;;;;;0.65;0.50;;;;;;;3.12;100.00;96621.19;1022262;28;20051;-74
2023/11/18 00:26:10;;;;;;;0.10;0.10;;;;;;;3.11;100.00;96614.38;1022266;29;20070;-72
2023/11/18 00:26:41;;;;;;;0.00;0.00;;;;;;;3.06;100.00;96606.38;1018414;29;20283;-73
2023/11/18 00:27:11;;;;;;;0.10;0.10;;;;;;;3.12;100.00;96616.00;1018820;29;20043;-72
2023/11/18 00:27:43;;;;;;;0.00;0.00;;;;;;;3.12;100.00;96620.34;1025215;28;20042;-74
2023/11/18 00:28:13;;;;;;;0.55;0.30;;;;;;;3.14;100.00;96615.78;1026432;28;20023;-73
2023/11/18 00:28:44;;;;;;;0.20;0.20;;;;;;;3.14;100.00;96616.56;1027066;28;20321;-72
2023/11/18 00:29:14;;;;;;;0.40;0.40;;;;;;;3.15;100.00;96619.97;1034199;28;20021;-72
2023/11/18 00:29:45;;;;;;;0.30;0.30;;;;;;;3.13;100.00;96619.38;1031040;28;20128;-72
2023/11/18 00:30:16;;;;;;;0.10;0.10;;;;;;;3.12;100.00;96620.34;1038776;28;20018;-73
2023/11/18 00:30:46;;;;;;;0.10;0.10;;;;;;;3.08;100.00;96609.56;1040775;28;20539;-73
2023/11/18 00:31:16;;;;;;;1.33;1.23;;;;;;;3.13;100.00;96616.78;1035594;28;20028;-74
2023/11/18 00:31:47;;;;;;;0.47;0.47;;;;;;;3.12;100.00;96616.00;1038201;28;20018;-74
2023/11/18 00:32:17;;;;;;;0.40;0.40;;;;;;;3.13;100.00;96619.38;1037231;28;20400;-74
2023/11/18 00:32:48;;;;;;;0.43;0.32;;;;;;;3.05;100.00;96605.59;1026555;28;20097;-73
2023/11/18 00:33:18;;;;;;;0.40;0.40;;;;;;;3.13;100.00;96621.97;1033143;28;20033;-72
2023/11/18 00:33:49;;;;;;;0.30;0.30;;;;;;;3.11;100.00;96613.56;1030500;28;20022;-74
2023/11/18 00:34:19;;;;;;;0.10;0.10;;;;;;;3.03;100.00;96610.16;1026920;28;20398;-73
2023/11/18 00:34:49;;;;;;;1.55;0.75;;;;;;;3.13;100.00;96622.75;1030442;28;20033;-74
2023/11/18 00:35:20;;;;;;;0.20;0.20;;;;;;;3.15;100.00;96619.97;1022464;28;20039;-73
2023/11/18 00:35:50;;;;;;;0.52;0.52;;;;;;;3.15;100.00;96617.38;1028587;28;20151;-71
2023/11/18 00:36:21;;;;;;;0.05;0.05;;;;;;;3.14;100.00;96623.56;1021743;28;20027;-73
2023/11/18 00:36:52;;;;;;;0.20;0.20;;;;;;;3.15;100.00;96625.16;1026628;28;20055;-72
2023/11/18 00:37:22;;;;;;;0.10;0.10;;;;;;;3.14;100.00;96618.38;1030392;28;20468;-74
2023/11/18 00:37:52;;;;;;;0.00;0.00;;;;;;;3.09;100.00;96615.56;1026514;28;20082;-73
2023/11/18 00:38:23;;;;;;;0.30;0.30;;;;;;;3.12;100.00;96617.75;1022419;29;20027;-74
2023/11/18 00:38:53;;;;;;;0.30;0.30;;;;;;;3.07;100.00;96611.38;1026492;28;20023;-74
2023/11/18 00:39:24;;;;;;;0.40;0.40;;;;;;;3.13;100.00;96619.38;1034376;28;20018;-73
2023/11/18 00:39:55;;;;;;;4.95;0.52;;;;;;;3.14;100.00;96618.38;1034442;28;20028;-72
2023/11/18 00:40:25;;;;;;;0.32;0.32;;;;;;;3.10;100.00;96617.97;1026318;28;20027;-72
2023/11/18 00:40:56;;;;;;;5.38;0.68;;;;;;;3.11;100.00;96621.34;1030268;28;20471;-74
2023/11/18 00:41:26;;;;;;;0.03;0.03;;;;;;;3.12;100.00;96622.94;1025671;28;20026;-74
2023/11/18 00:41:57;;;;;;;0.10;0.10;;;;;;;3.12;100.00;96622.94;1026691;28;20019;-77
2023/11/18 00:42:27;;;;;;;0.08;0.08;;;;;;;3.14;100.00;96623.56;1026197;28;20495;-73
2023/11/18 00:42:58;;;;;;;0.55;0.55;;;;;;;3.03;100.00;96607.56;1022562;28;20039;-74
2023/11/18 00:43:28;;;;;;;0.38;0.38;;;;;;;3.11;100.00;96621.34;1026427;28;20022;-73
2023/11/18 00:43:59;;;;;;;0.10;0.10;;;;;;;3.10;100.00;96615.38;1026520;28;20011;-73
2023/11/18 00:44:29;;;;;;;0.30;0.30;;;;;;;3.11;100.00;96621.34;1029068;28;20023;-73
2023/11/18 00:45:00;;;;;;;0.50;0.50;;;;;;;3.14;100.00;96626.94;1034415;28;20029;-73
2023/11/18 00:45:30;;;;;;;0.00;0.00;;;;;;;3.16;100.00;96629.38;1034490;28;20017;-73
2023/11/18 00:46:03;;;;;;;0.43;0.43;;;;;;;3.16;100.00;96626.78;1031887;28;20878;-73
2023/11/18 00:46:35;;;;;;;0.32;0.32;;;;;;;3.12;100.00;96613.41;1030388;28;20392;-73
2023/11/18 00:47:06;;;;;;;0.10;0.10;;;;;;;3.18;100.00;96622.19;1031071;28;20276;-73
2023/11/18 00:47:36;;;;;;;0.00;0.00;;;;;;;3.16;100.00;96624.97;1035055;28;20287;-72
2023/11/18 00:48:07;;;;;;;0.45;0.45;;;;;;;3.17;100.00;96628.38;1038494;28;20033;-72
2023/11/18 00:48:37;;;;;;;0.45;0.22;;;;;;;3.15;100.00;96620.75;1038931;28;20079;-73
2023/11/18 00:49:08;;;;;;;0.10;0.10;;;;;;;3.16;100.00;96619.00;1034390;28;20501;-73
2023/11/18 00:49:39;;;;;;;0.43;0.43;;;;;;;3.16;100.00;96621.59;1038413;28;20041;-72
2023/11/18 00:50:10;;;;;;;0.00;0.00;;;;;;;3.12;100.00;96621.19;1038536;28;20105;-72
2023/11/18 00:50:40;;;;;;;0.30;0.30;;;;;;;3.14;100.00;96620.97;1030534;28;20951;-72
2023/11/18 00:51:11;;;;;;;0.10;0.10;;;;;;;3.01;100.00;96609.53;1033492;28;20064;-72
2023/11/18 00:51:41;;;;;;;0.00;0.00;;;;;;;3.09;100.00;96625.94;1030425;28;20034;-73
2023/11/18 00:52:12;;;;;;;0.20;0.20;;;;;;;3.07;100.00;96624.34;1026509;28;20018;-73
2023/11/18 00:52:42;;;;;;;0.10;0.10;;;;;;;3.05;100.00;96626.34;1022370;29;20767;-75
2023/11/18 00:53:13;;;;;;;0.10;0.10;;;;;;;2.94;100.00;96597.56;1026280;28;20026;-72
2023/11/18 00:53:44;;;;;;;0.20;0.20;;;;;;;3.04;100.00;96621.31;1026356;28;20538;-74
2023/11/18 00:54:14;;;;;;;0.10;0.10;;;;;;;2.97;100.00;96613.53;1026415;28;20399;-72
2023/11/18 00:54:45;;;;;;;1.88;1.40;;;;;;;2.99;100.00;96623.72;1025642;28;20281;-73
2023/11/18 00:55:17;;;;;;;0.00;0.00;;;;;;;2.99;100.00;96621.91;1026816;28;20106;-73
2023/11/18 00:55:48;;;;;;;0.10;0.10;;;;;;;2.94;100.00;96611.31;1030880;28;20134;-73
2023/11/18 00:56:21;;;;;;;0.73;0.73;;;;;;;2.90;100.00;96611.91;1030284;28;21069;-73
2023/11/18 00:56:51;;;;;;;0.47;0.22;;;;;;;2.98;100.00;96622.09;1022287;29;20094;-72
2023/11/18 00:57:22;;;;;;;0.45;0.45;;;;;;;2.98;100.00;96620.28;1022313;29;20275;-71
2023/11/18 00:57:52;;;;;;;0.68;0.68;;;;;;;2.93;100.00;96607.13;1023340;28;20552;-72
2023/11/18 00:58:23;;;;;;;0.52;0.52;;;;;;;2.98;100.00;96617.69;1030339;28;20022;-72
2023/11/18 00:58:54;;;;;;;0.63;0.63;;;;;;;3.01;100.00;96629.47;1024577;28;20038;-73
2023/11/18 00:59:24;;;;;;;0.80;0.80;;;;;;;2.90;100.00;96607.50;1023071;28;20034;-73
2023/11/18 00:59:55;;;;;;;0.00;0.00;;;;;;;2.97;100.00;96616.09;1022467;28;20023;-71
2023/11/18 01:00:26;;;;;;;0.20;0.20;;;;;;;2.92;100.00;96612.47;1026333;28;20105;-73
2023/11/18 01:00:57;;;;;;;0.52;0.47;;;;;;;2.97;100.00;96629.06;1026606;28;20068;-71
2023/11/18 01:01:28;;;;;;;0.00;0.00;;;;;;;2.97;100.00;96623.09;1025660;28;20681;-72
2023/11/18 01:01:58;;;;;;;0.20;0.20;;;;;;;2.96;100.00;96621.50;1029306;28;20105;-75
2023/11/18 01:02:29;;;;;;;0.10;0.10;;;;;;;2.98;100.00;96624.69;1034750;28;20368;-73
2023/11/18 01:02:59;;;;;;;0.10;0.10;;;;;;;2.99;100.00;96628.91;1038511;28;20440;-73
2023/11/18 01:03:30;;;;;;;0.17;0.17;;;;;;;2.99;100.00;96627.09;1031605;28;20085;-73
2023/11/18 01:04:00;;;;;;;1.35;0.85;;;;;;;2.97;100.00;96628.28;1034500;28;20030;-73
2023/11/18 01:04:33;;;;;;;0.43;0.38;;;;;;;2.92;100.00;96615.91;1030358;28;20776;-72
2023/11/18 01:05:03;;;;;;;4.57;1.95;;;;;;;3.00;100.00;96633.06;1027104;28;20022;-73
2023/11/18 01:05:34;;;;;;;0.10;0.10;;;;;;;3.00;100.00;96627.91;1038393;28;20865;-73
2023/11/18 01:06:06;;;;;;;0.55;0.55;;;;;;;2.98;100.00;96625.47;1038817;28;20033;-73
2023/11/18 01:06:36;;;;;;;0.22;0.22;;;;;;;3.00;100.00;96627.91;1038774;28;20036;-74
2023/11/18 01:07:08;;;;;;;0.20;0.20;;;;;;;3.01;100.00;96626.88;1039137;28;20275;-72
2023/11/18 01:07:39;;;;;;;0.30;0.30;;;;;;;3.01;100.00;96626.88;1038345;28;20038;-72
2023/11/18 01:08:09;;;;;;;0.00;0.00;;;;;;;3.00;100.00;96628.69;1038872;28;20272;-74
2023/11/18 01:08:40;;;;;;;0.57;0.57;;;;;;;3.01;100.00;96625.09;1038377;28;20033;-71
2023/11/18 01:09:10;;;;;;;1.08;0.80;;;;;;;3.02;100.00;96623.31;1034373;28;20084;-72
2023/11/18 01:09:41;;;;;;;0.45;0.45;;;;;;;3.02;100.00;96624.13;1034878;28;20104;-73
2023/11/18 01:10:11;;;;;;;0.57;0.43;;;;;;;2.96;100.00;96619.69;1030967;28;20026;-73
2023/11/18 01:10:42;;;;;;;0.00;0.00;;;;;;;3.01;100.00;96625.09;1027185;28;20018;-72
2023/11/18 01:11:18;;;;;;;0.17;0.17;;;;;;;2.97;100.00;96623.09;1030472;28;20825;-73
2023/11/18 01:11:49;;;;;;;0.28;0.28;;;;;;;2.99;100.00;96626.31;1027683;28;20026;-74
2023/11/18 01:12:20;;;;;;;0.90;0.55;;;;;;;2.97;100.00;96625.69;1028050;28;20254;-73
2023/11/18 01:12:51;;;;;;;0.73;0.73;;;;;;;2.90;100.00;96615.28;1027160;28;20090;-71
2023/11/18 01:13:21;;;;;;;0.10;0.10;;;;;;;2.95;100.00;96625.88;1023960;28;20038;-72
2023/11/18 01:13:54;;;;;;;0.57;0.57;;;;;;;2.96;100.00;96630.06;1023113;28;20051;-74
2023/11/18 01:14:24;;;;;;;0.43;0.43;;;;;;;2.96;100.00;96627.47;1027499;28;20512;-73
2023/11/18 01:14:55;;;;;;;0.28;0.28;;;;;;;2.95;100.00;96625.88;1027498;28;20269;-73
2023/11/18 01:15:25;;;;;;;0.10;0.10;;;;;;;2.92;100.00;96626.28;1031967;28;20984;-74
2023/11/18 01:15:56;;;;;;;0.08;0.08;;;;;;;2.94;100.00;96619.09;1035514;28;20025;-73
2023/11/18 01:16:28;;;;;;;0.50;0.50;;;;;;;2.93;100.00;96625.28;1039338;28;20022;-73
2023/11/18 01:16:59;;;;;;;0.00;0.00;;;;;;;2.94;100.00;96626.06;1039100;28;20348;-73
2023/11/18 01:17:31;;;;;;;0.45;0.45;;;;;;;2.96;100.00;96624.09;1039273;28;20275;-73
2023/11/18 01:18:02;;;;;;;0.10;0.10;;;;;;;2.96;100.00;96627.47;1035051;28;20648;-73
2023/11/18 01:18:32;;;;;;;0.03;0.03;;;;;;;2.99;100.00;96631.50;1032354;28;20257;-71
2023/11/18 01:19:03;;;;;;;0.57;0.57;;;;;;;3.00;100.00;96630.50;1030876;28;20269;-74
2023/11/18 01:19:33;;;;;;;0.70;0.68;;;;;;;2.95;100.00;96620.72;1027319;28;20018;-71
2023/11/18 01:20:09;;;;;;;0.20;0.20;;;;;;;3.04;100.00;96629.91;1027141;28;20033;-73
2023/11/18 01:20:40;;;;;;;0.55;0.55;;;;;;;3.01;100.00;96625.09;1032690;28;20022;-74
2023/11/18 01:21:11;;;;;;;0.00;0.00;;;;;;;3.02;100.00;96631.09;1031385;28;20772;-73
2023/11/18 01:21:41;;;;;;;0.30;0.30;;;;;;;3.02;100.00;96631.09;1031947;28;20029;-73
2023/11/18 01:22:12;;;;;;;0.00;0.00;;;;;;;3.02;100.00;96631.91;1030777;28;20764;-71
2023/11/18 01:22:45;;;;;;;1.30;1.20;;;;;;;2.92;100.00;96610.72;1027432;28;20645;-73
2023/11/18 01:23:16;;;;;;;0.22;0.22;;;;;;;2.96;100.00;96621.50;1023626;28;20093;-73
2023/11/18 01:23:46;;;;;;;0.35;0.35;;;;;;;2.99;100.00;96631.50;1026968;28;20333;-71
2023/11/18 01:24:16;;;;;;;0.10;0.10;;;;;;;3.00;100.00;96628.69;1026940;28;20026;-73
2023/11/18 01:24:47;;;;;;;0.10;0.10;;;;;;;3.03;100.00;96638.69;1027197;28;20026;-74
2023/11/18 01:25:18;;;;;;;0.10;0.10;;;;;;;3.02;100.00;96631.91;1031121;28;20106;-73
2023/11/18 01:25:50;;;;;;;0.17;0.10;;;;;;;3.03;100.00;96638.69;1026776;28;20475;-74
2023/11/18 01:26:23;;;;;;;1.00;0.63;;;;;;;3.00;100.00;96633.88;1028141;28;20963;-72
2023/11/18 01:26:53;;;;;;;0.90;0.32;;;;;;;2.99;100.00;96632.28;1039845;28;20272;-72
2023/11/18 01:27:24;;;;;;;0.30;0.30;;;;;;;3.01;100.00;96632.06;1042189;28;20330;-74
2023/11/18 01:27:54;;;;;;;0.80;0.52;;;;;;;3.03;100.00;96635.28;1047522;28;20078;-72
2023/11/18 01:28:26;;;;;;;0.82;0.73;;;;;;;2.98;100.00;96638.44;1043167;28;20543;-71
2023/11/18 01:28:56;;;;;;;0.20;0.20;;;;;;;2.89;100.00;96626.66;1038058;28;20044;-74
2023/11/18 01:29:27;;;;;;;0.00;0.00;;;;;;;2.90;100.00;96625.66;1035151;28;20283;-74
2023/11/18 01:29:57;;;;;;;0.45;0.45;;;;;;;2.97;100.00;96629.06;1031181;28;20033;-73
2023/11/18 01:30:28;;;;;;;0.00;0.00;;;;;;;2.98;100.00;96633.25;1030886;28;20101;-74
2023/11/18 01:30:59;;;;;;;0.28;0.28;;;;;;;2.99;100.00;96634.88;1030114;28;20030;-71
2023/11/18 01:31:29;;;;;;;0.28;0.28;;;;;;;2.99;100.00;96637.47;1031224;28;20030;-73
2023/11/18 01:31:59;;;;;;;0.10;0.10;;;;;;;2.99;100.00;96636.66;1035240;28;20022;-74
2023/11/18 01:32:30;;;;;;;0.10;0.10;;;;;;;2.92;100.00;96622.84;1035002;28;20044;-72
2023/11/18 01:33:01;;;;;;;0.10;0.10;;;;;;;2.88;100.00;96614.66;1031167;28;20594;-72
2023/11/18 01:33:37;;;;;;;0.15;0.15;;;;;;;2.99;100.00;96631.50;1031007;28;20033;-72
2023/11/18 01:34:07;;;;;;;0.10;0.10;;;;;;;3.00;100.00;96636.47;1031818;28;20635;-72
2023/11/18 01:34:39;;;;;;;0.43;0.43;;;;;;;2.95;100.00;96636.25;1031745;28;20305;-72
2023/11/18 01:35:13;;;;;;;0.00;0.00;;;;;;;2.96;100.00;96635.25;1032117;28;20018;-73
2023/11/18 01:35:43;;;;;;;0.57;0.50;;;;;;;2.99;100.00;96632.28;1031286;28;20665;-73
2023/11/18 01:36:14;;;;;;;0.10;0.10;;;;;;;3.01;100.00;96629.47;1031546;28;20273;-73
2023/11/18 01:36:44;;;;;;;1.05;0.65;;;;;;;3.02;100.00;96631.91;1031489;28;20049;-73
2023/11/18 01:37:15;;;;;;;0.00;0.00;;;;;;;2.99;100.00;96627.09;1035003;28;20025;-73
2023/11/18 01:37:45;;;;;;;0.00;0.00;;;;;;;2.96;100.00;96627.47;1032130;28;20051;-73
2023/11/18 01:38:16;;;;;;;0.28;0.28;;;;;;;3.00;100.00;96627.91;1031087;28;20781;-72
2023/11/18 01:38:46;;;;;;;0.20;0.20;;;;;;;3.00;100.00;96631.28;1034919;28;20441;-73
2023/11/18 01:39:20;;;;;;;0.00;0.00;;;;;;;3.01;100.00;96629.47;1026877;28;20023;-73
2023/11/18 01:39:51;;;;;;;0.10;0.10;;;;;;;2.93;100.00;96622.69;1027474;28;20079;-75
2023/11/18 01:40:21;;;;;;;0.05;0.05;;;;;;;2.90;100.00;96623.06;1023052;29;20322;-74
2023/11/18 01:40:53;;;;;;;0.00;0.00;;;;;;;2.97;100.00;96634.25;1024525;28;20042;-74
2023/11/18 01:41:23;;;;;;;0.00;0.00;;;;;;;2.96;100.00;96632.66;1030416;28;20026;-71
2023/11/18 01:41:55;;;;;;;1.77;1.08;;;;;;;3.00;100.00;96635.66;1031404;28;20633;-74
2023/11/18 01:42:25;;;;;;;1.33;0.60;;;;;;;2.87;100.00;96620.06;1038803;28;20783;-72
2023/11/18 01:42:56;;;;;;;0.32;0.32;;;;;;;2.88;100.00;96624.22;1022978;29;20271;-74
2023/11/18 01:43:27;;;;;;;0.30;0.30;;;;;;;2.91;100.00;96629.03;1023408;28;20034;-73
2023/11/18 01:43:58;;;;;;;0.10;0.10;;;;;;;2.89;100.00;96626.66;1023041;29;20035;-72
2023/11/18 01:44:29;;;;;;;0.17;0.17;;;;;;;2.88;100.00;96627.63;1026198;28;20101;-71
2023/11/18 01:45:03;;;;;;;0.10;0.10;;;;;;;2.96;100.00;96639.66;1026644;28;20373;-74
2023/11/18 01:45:33;;;;;;;0.32;0.32;;;;;;;2.96;100.00;96639.66;1026827;28;20082;-73
2023/11/18 01:46:05;;;;;;;0.43;0.43;;;;;;;2.99;100.00;96647.84;1028628;28;20679;-73
2023/11/18 01:46:35;;;;;;;0.20;0.20;;;;;;;2.80;100.00;96612.25;1026853;28;20544;-73
2023/11/18 01:47:06;;;;;;;2.08;0.85;;;;;;;2.99;100.00;96641.84;1022897;29;20270;-72
2023/11/18 01:47:37;;;;;;;0.90;0.55;;;;;;;2.94;100.00;96641.63;1015613;29;20535;-74
2023/11/18 01:48:09;;;;;;;0.15;0.15;;;;;;;2.95;100.00;96636.25;1018963;29;20299;-72
2023/11/18 01:48:41;;;;;;;0.30;0.30;;;;;;;2.98;100.00;96643.63;1019016;29;20090;-72
2023/11/18 01:49:13;;;;;;;0.00;0.00;;;;;;;2.99;100.00;96636.66;1022944;29;20312;-73
2023/11/18 01:49:44;;;;;;;0.10;0.10;;;;;;;2.98;100.00;96641.03;1022987;29;20271;-73
2023/11/18 01:50:14;;;;;;;0.45;0.45;;;;;;;3.00;100.00;96648.63;1026794;28;20270;-69
2023/11/18 01:50:47;;;;;;;0.32;0.32;;;;;;;2.97;100.00;96644.63;1026809;28;20026;-74
2023/11/18 01:51:19;;;;;;;0.10;0.10;;;;;;;2.99;100.00;96649.63;1025388;28;20482;-72
2023/11/18 01:51:51;;;;;;;0.80;0.80;;;;;;;3.00;100.00;96643.44;1014950;29;20272;-72
2023/11/18 01:52:21;;;;;;;0.00;0.00;;;;;;;2.98;100.00;96648.81;1011637;29;20276;-74
2023/11/18 01:52:53;;;;;;;0.40;0.20;;;;;;;3.01;100.00;96645.84;1022651;28;20850;-73
2023/11/18 01:53:23;;;;;;;0.00;0.00;;;;;;;3.02;100.00;96642.28;1027133;28;20609;-71
2023/11/18 01:53:55;;;;;;;0.60;0.60;;;;;;;2.92;100.00;96631.44;1027004;28;20258;-73
2023/11/18 01:54:26;;;;;;;0.15;0.15;;;;;;;3.02;100.00;96650.06;1023613;28;20028;-73
2023/11/18 01:54:57;;;;;;;0.10;0.10;;;;;;;3.01;100.00;96655.41;1030878;28;20306;-72
2023/11/18 01:55:28;;;;;;;0.43;0.40;;;;;;;3.00;100.00;96644.25;1030802;28;20836;-73
2023/11/18 01:55:59;;;;;;;0.93;0.75;;;;;;;3.02;100.00;96647.47;1030978;28;20078;-72
2023/11/18 01:56:29;;;;;;;0.00;0.00;;;;;;;2.98;100.00;96640.22;1026984;28;20289;-74
2023/11/18 01:57:03;;;;;;;0.00;0.00;;;;;;;2.97;100.00;96638.66;1023086;28;20435;-75
2023/11/18 01:57:34;;;;;;;0.05;0.05;;;;;;;3.01;100.00;96651.03;1022876;29;20035;-73
2023/11/18 01:58:08;;;;;;;0.10;0.10;;;;;;;2.93;100.00;96634.84;1022818;29;20743;-73
2023/11/18 01:58:38;;;;;;;0.45;0.30;;;;;;;2.96;100.00;96653.41;1019616;29;20838;-73
2023/11/18 01:59:10;;;;;;;0.38;0.38;;;;;;;2.92;100.00;96631.44;1023041;29;20262;-73
2023/11/18 01:59:40;;;;;;;0.05;0.05;;;;;;;2.97;100.00;96652.41;1026925;28;20019;-72
2023/11/18 02:00:12;;;;;;;0.35;0.35;;;;;;;2.97;100.00;96639.44;1024827;28;20266;-72
2023/11/18 02:00:42;;;;;;;0.00;0.00;;;;;;;2.96;100.00;96653.41;1022847;29;20063;-72
2023/11/18 02:01:16;;;;;;;0.10;0.10;;;;;;;2.95;100.00;96645.81;1018708;29;20264;-73
2023/11/18 02:01:51;;;;;;;0.52;0.30;;;;;;;2.93;100.00;96635.63;1029225;28;20142;-74
2023/11/18 02:02:21;;;;;;;0.20;0.20;;;;;;;3.01;100.00;96652.81;1030884;28;20273;-73
2023/11/18 02:02:52;;;;;;;0.00;0.00;;;;;;;2.99;100.00;96650.44;1026917;28;20263;-72
2023/11/18 02:03:22;;;;;;;0.00;0.00;;;;;;;2.98;100.00;96654.00;1027680;28;20022;-73
2023/11/18 02:03:53;;;;;;;0.00;0.00;;;;;;;2.96;100.00;96648.22;1027156;28;20034;-72
2023/11/18 02:04:24;;;;;;;0.10;0.10;;;;;;;2.99;100.00;96650.44;1034977;28;20084;-72
2023/11/18 02:04:55;;;;;;;0.40;0.40;;;;;;;2.99;100.00;96650.44;1030810;28;20026;-74
2023/11/18 02:05:25;;;;;;;0.20;0.20;;;;;;;2.98;100.00;96648.81;1026955;28;20270;-73
2023/11/18 02:05:56;;;;;;;0.10;0.10;;;;;;;3.01;100.00;96656.22;1022846;29;20031;-71
2023/11/18 02:06:27;;;;;;;0.57;0.57;;;;;;;2.98;100.00;96648.81;1022904;29;20199;-72
2023/11/18 02:06:57;;;;;;;1.88;0.47;;;;;;;2.92;100.00;96641.81;1022784;29;20412;-73
2023/11/18 02:07:28;;;;;;;0.00;0.00;;;;;;;2.94;100.00;96637.22;1026884;28;20023;-73
2023/11/18 02:08:00;;;;;;;0.20;0.20;;;;;;;3.03;100.00;96645.66;1022722;29;20027;-74
2023/11/18 02:08:31;;;;;;;0.15;0.15;;;;;;;3.00;100.00;96654.63;1026858;28;20086;-71
2023/11/18 02:09:05;;;;;;;0.65;0.28;;;;;;;2.97;100.00;96649.81;1022768;29;20273;-74
2023/11/18 02:09:35;;;;;;;0.20;0.20;;;;;;;3.01;100.00;96647.63;1026842;28;20265;-73
2023/11/18 02:10:09;;;;;;;0.10;0.10;;;;;;;3.01;100.00;96655.41;1026760;28;20038;-72
2023/11/18 02:10:55;;;;;;;0.00;0.00;;;;;;;2.98;100.00;96656.59;1027457;28;20027;-73
2023/11/18 02:11:31;;;;;;;0.35;0.17;;;;;;;2.96;100.00;96657.78;1028903;28;20276;-73
2023/11/18 02:12:04;;;;;;;0.10;0.10;;;;;;;2.96;100.00;96657.78;1022621;29;20427;-73
2023/11/18 02:12:53;;;;;;;0.40;0.40;;;;;;;2.89;100.00;96642.19;1026737;28;20362;-72
2023/11/18 02:13:27;;;;;;;0.10;0.10;;;;;;;2.93;100.00;96658.16;1034966;28;20337;-73
2023/11/18 02:13:58;;;;;;;0.10;0.10;;;;;;;2.91;100.00;96655.75;1026717;28;20266;-72
2023/11/18 02:14:29;;;;;;;0.00;0.00;;;;;;;2.92;100.00;96653.97;1022768;29;20755;-73
2023/11/18 02:15:00;;;;;;;0.00;0.00;;;;;;;2.86;100.00;96645.19;1022904;29;20259;-74
2023/11/18 02:15:31;;;;;;;0.25;0.25;;;;;;;2.88;100.00;96655.34;1026727;28;20101;-73
2023/11/18 02:16:02;;;;;;;0.40;0.40;;;;;;;2.89;100.00;96657.75;1022938;29;20644;-73
2023/11/18 02:16:32;;;;;;;0.13;0.13;;;;;;;2.88;100.00;96658.72;1018700;29;20271;-71
2023/11/18 02:17:03;;;;;;;0.32;0.32;;;;;;;2.86;100.00;96658.13;1019849;29;20028;-72
2023/11/18 02:17:33;;;;;;;0.10;0.10;;;;;;;2.81;100.00;96656.09;1022999;29;20540;-74
2023/11/18 02:18:05;;;;;;;0.10;0.10;;;;;;;2.86;100.00;96660.72;1026865;28;20381;-73
2023/11/18 02:18:35;;;;;;;0.10;0.10;;;;;;;2.78;100.00;96646.13;1026868;28;20570;-74
2023/11/18 02:19:12;;;;;;;0.52;0.35;;;;;;;2.87;100.00;96658.94;1038682;28;20268;-73
2023/11/18 02:19:42;;;;;;;0.50;0.50;;;;;;;2.84;100.00;96660.91;1026827;28;20625;-73
2023/11/18 02:20:15;;;;;;;0.10;0.10;;;;;;;2.81;100.00;96655.28;1026822;28;20266;-74
2023/11/18 02:20:47;;;;;;;0.30;0.30;;;;;;;2.79;100.00;96657.28;1022632;28;20125;-73
2023/11/18 02:21:18;;;;;;;0.10;0.10;;;;;;;2.76;100.00;96652.50;1029661;28;20357;-73
2023/11/18 02:21:49;;;;;;;0.00;0.00;;;;;;;2.77;100.00;96659.28;1026931;28;20773;-72
2023/11/18 02:22:21;;;;;;;0.00;0.00;;;;;;;2.74;100.00;96651.88;1026732;28;20508;-74
2023/11/18 02:22:52;;;;;;;0.00;0.00;;;;;;;2.77;100.00;96661.84;1026277;28;20877;-73
2023/11/18 02:23:23;;;;;;;0.30;0.30;;;;;;;2.77;100.00;96654.09;1030821;28;20273;-73
2023/11/18 02:23:54;;;;;;;0.00;0.00;;;;;;;2.74;100.00;96662.25;1025904;28;20058;-71
2023/11/18 02:24:30;;;;;;;0.52;0.50;;;;;;;2.74;100.00;96659.66;1027008;28;20281;-73
2023/11/18 02:25:05;;;;;;;0.00;0.00;;;;;;;2.66;100.00;96650.25;1027015;28;20629;-74
2023/11/18 02:25:42;;;;;;;0.00;0.00;;;;;;;2.71;100.00;96660.81;1030923;28;20269;-72
2023/11/18 02:26:20;;;;;;;0.00;0.00;;;;;;;2.67;100.00;96658.81;1030945;28;20767;-73
2023/11/18 02:26:51;;;;;;;0.35;0.35;;;;;;;2.66;100.00;96658.00;1030933;28;20276;-73
2023/11/18 02:27:24;;;;;;;0.00;0.00;;;;;;;2.66;100.00;96662.41;1030941;28;20250;-73